createdAt,value
2024-01-24T00:00:37.527Z,16.00
2024-01-24T00:03:25.797Z,24.40
2024-01-24T00:05:54.171Z,14.00
2024-01-24T00:08:24.714Z,12.60
2024-01-24T00:10:54.906Z,13.80
2024-01-24T00:13:22.912Z,17.10
2024-01-24T00:15:50.994Z,21.60
2024-01-24T00:18:19.062Z,14.50
2024-01-24T00:20:47.103Z,18.50
2024-01-24T00:23:14.990Z,17.20
2024-01-24T00:25:42.932Z,13.60
2024-01-24T00:28:10.824Z,15.80
2024-01-24T00:30:38.785Z,17.50
2024-01-24T00:33:06.640Z,12.10
2024-01-24T00:35:34.591Z,18.00
2024-01-24T00:38:02.571Z,15.10
2024-01-24T00:40:30.527Z,10.60
2024-01-24T00:42:58.347Z,14.70
2024-01-24T00:45:26.998Z,18.60
2024-01-24T00:47:54.903Z,17.40
2024-01-24T00:50:23.006Z,12.10
2024-01-24T00:52:53.649Z,16.00
2024-01-24T00:55:21.613Z,11.80
2024-01-24T00:57:49.416Z,16.00
2024-01-24T01:00:18.096Z,13.90
2024-01-24T01:02:45.924Z,13.20
2024-01-24T01:05:13.809Z,15.70
2024-01-24T01:07:41.867Z,17.40
2024-01-24T01:10:10.582Z,13.20
2024-01-24T01:12:38.686Z,20.70
2024-01-24T01:15:07.435Z,15.40
2024-01-24T01:17:35.348Z,13.60
2024-01-24T01:20:04.564Z,17.90
2024-01-24T01:22:34.512Z,18.70
2024-01-24T01:25:02.650Z,14.10
2024-01-24T01:27:30.554Z,13.90
2024-01-24T01:30:00.842Z,10.60
2024-01-24T01:32:28.833Z,12.50
2024-01-24T01:34:57.142Z,15.30
2024-01-24T01:37:25.262Z,14.30
2024-01-24T01:39:53.613Z,12.10
2024-01-24T01:42:21.623Z,17.90
2024-01-24T01:44:49.576Z,18.80
2024-01-24T01:47:18.253Z,16.80
2024-01-24T01:49:47.156Z,11.00
2024-01-24T01:52:17.368Z,9.90
2024-01-24T01:54:46.109Z,9.50
2024-01-24T01:57:17.871Z,10.80
2024-01-24T01:59:46.461Z,12.70
2024-01-24T02:02:15.326Z,10.10
2024-01-24T02:04:43.371Z,14.70
2024-01-24T02:07:11.381Z,14.30
2024-01-24T02:09:39.505Z,11.60
2024-01-24T02:12:07.681Z,12.10
2024-01-24T02:14:35.525Z,14.70
2024-01-24T02:17:03.677Z,10.70
2024-01-24T02:19:31.812Z,13.90
2024-01-24T02:22:00.009Z,11.60
2024-01-24T02:24:28.233Z,10.00
2024-01-24T02:26:56.402Z,9.50
2024-01-24T02:29:24.806Z,18.00
2024-01-24T02:31:52.741Z,10.60
2024-01-24T02:34:20.837Z,13.50
2024-01-24T02:36:48.888Z,16.40
2024-01-24T02:39:16.979Z,12.90
2024-01-24T02:41:44.920Z,17.20
2024-01-24T02:44:12.902Z,12.50
2024-01-24T02:46:40.854Z,14.80
2024-01-24T02:49:08.876Z,13.80
2024-01-24T02:51:37.063Z,13.10
2024-01-24T02:54:05.846Z,9.70
2024-01-24T02:56:34.984Z,11.90
2024-01-24T02:59:02.844Z,12.70
2024-01-24T03:01:30.850Z,12.00
2024-01-24T03:03:58.916Z,8.90
2024-01-24T03:06:27.020Z,9.90
2024-01-24T03:08:59.373Z,11.40
2024-01-24T03:11:27.698Z,10.30
2024-01-24T03:13:55.770Z,10.70
2024-01-24T03:16:23.569Z,16.60
2024-01-24T03:18:53.176Z,11.80
2024-01-24T03:21:21.533Z,10.20
2024-01-24T03:23:49.490Z,13.40
2024-01-24T03:26:18.374Z,12.00
2024-01-24T03:28:46.699Z,12.10
2024-01-24T03:31:15.029Z,13.10
2024-01-24T03:33:43.766Z,8.20
2024-01-24T03:36:12.265Z,11.00
2024-01-24T03:38:40.518Z,7.80
2024-01-24T03:41:08.450Z,8.60
2024-01-24T03:43:41.011Z,11.50
2024-01-24T03:46:09.451Z,10.30
2024-01-24T03:48:37.451Z,8.20
2024-01-24T03:51:09.208Z,17.90
2024-01-24T03:53:37.293Z,9.80
2024-01-24T03:56:05.377Z,11.10
2024-01-24T03:58:33.227Z,12.20
2024-01-24T04:01:01.172Z,14.00
2024-01-24T04:03:29.257Z,10.40
2024-01-24T04:05:57.231Z,10.80
2024-01-24T04:08:25.146Z,14.20
2024-01-24T04:10:53.081Z,13.10
2024-01-24T04:13:21.444Z,10.80
2024-01-24T04:15:49.359Z,9.20
2024-01-24T04:18:17.544Z,8.30
2024-01-24T04:20:45.564Z,10.90
2024-01-24T04:23:13.439Z,8.80
2024-01-24T04:25:41.334Z,9.30
2024-01-24T04:28:10.527Z,12.10
2024-01-24T04:30:41.483Z,8.70
2024-01-24T04:33:09.647Z,14.40
2024-01-24T04:35:37.669Z,10.30
2024-01-24T04:38:05.543Z,11.30
2024-01-24T04:40:34.841Z,7.50
2024-01-24T04:43:03.137Z,8.00
2024-01-24T04:45:33.421Z,7.50
2024-01-24T04:48:01.937Z,8.60
2024-01-24T04:50:29.916Z,12.80
2024-01-24T04:52:57.791Z,12.70
2024-01-24T04:55:25.605Z,8.90
2024-01-24T04:57:53.804Z,8.80
2024-01-24T05:00:21.759Z,11.70
2024-01-24T05:02:49.839Z,10.90
2024-01-24T05:05:17.856Z,7.40
2024-01-24T05:07:45.974Z,12.00
2024-01-24T05:10:13.989Z,11.70
2024-01-24T05:12:42.068Z,10.90
2024-01-24T05:15:11.419Z,9.70
2024-01-24T05:17:40.857Z,13.10
2024-01-24T05:20:10.346Z,11.10
2024-01-24T05:22:38.280Z,8.30
2024-01-24T05:25:06.691Z,9.10
2024-01-24T05:27:34.657Z,14.90
2024-01-24T05:30:12.125Z,10.20
2024-01-24T05:32:46.223Z,10.00
2024-01-24T05:35:14.443Z,9.70
2024-01-24T05:37:42.300Z,13.60
2024-01-24T05:40:10.750Z,10.40
2024-01-24T05:42:39.403Z,9.30
2024-01-24T05:45:08.105Z,11.10
2024-01-24T05:47:36.091Z,14.50
2024-01-24T05:50:05.571Z,10.00
2024-01-24T05:52:33.663Z,13.10
2024-01-24T05:55:01.588Z,7.30
2024-01-24T05:57:29.739Z,9.00
2024-01-24T05:59:57.712Z,9.30
2024-01-24T06:02:25.692Z,9.90
2024-01-24T06:04:53.964Z,12.40
2024-01-24T06:07:22.385Z,15.10
2024-01-24T06:09:50.827Z,11.30
2024-01-24T06:12:18.817Z,10.00
2024-01-24T06:14:46.825Z,13.90
2024-01-24T06:17:14.743Z,15.20
2024-01-24T06:19:44.409Z,12.00
2024-01-24T06:22:12.590Z,14.50
2024-01-24T06:24:41.286Z,14.50
2024-01-24T06:27:12.270Z,11.20
2024-01-24T06:30:16.340Z,13.20
2024-01-24T06:32:28.741Z,16.00
2024-01-24T06:34:56.794Z,15.60
2024-01-24T06:37:24.681Z,11.70
2024-01-24T06:39:52.709Z,12.50
2024-01-24T06:42:21.414Z,13.50
2024-01-24T06:44:49.678Z,10.40
2024-01-24T06:47:17.856Z,11.90
2024-01-24T06:49:45.877Z,14.20
2024-01-24T06:52:13.801Z,13.30
2024-01-24T06:54:41.771Z,13.10
2024-01-24T06:57:09.734Z,8.80
2024-01-24T06:59:38.228Z,12.60
2024-01-24T07:02:07.566Z,13.80
2024-01-24T07:04:35.600Z,11.60
2024-01-24T07:07:03.850Z,14.50
2024-01-24T07:09:31.826Z,11.50
2024-01-24T07:11:59.632Z,13.00
2024-01-24T07:14:27.471Z,12.90
2024-01-24T07:16:55.272Z,19.00
2024-01-24T07:19:23.140Z,12.50
2024-01-24T07:21:51.100Z,7.80
2024-01-24T07:24:18.988Z,9.50
2024-01-24T07:26:46.888Z,8.60
2024-01-24T07:29:16.118Z,10.10
2024-01-24T07:31:43.919Z,10.10
2024-01-24T07:34:13.445Z,9.10
2024-01-24T07:36:43.908Z,10.60
2024-01-24T07:39:11.948Z,6.10
2024-01-24T07:41:39.866Z,11.70
2024-01-24T07:44:07.779Z,10.40
2024-01-24T07:46:39.846Z,7.30
2024-01-24T07:49:08.015Z,11.00
2024-01-24T07:51:36.059Z,7.80
2024-01-24T07:54:04.897Z,11.20
2024-01-24T07:56:32.980Z,10.20
2024-01-24T07:59:02.516Z,7.60
2024-01-24T08:01:30.972Z,7.50
2024-01-24T08:04:02.293Z,7.70
2024-01-24T08:08:58.517Z,4.40
2024-01-24T08:11:26.419Z,9.40
2024-01-24T08:13:54.653Z,9.50
2024-01-24T08:16:22.584Z,5.40
2024-01-24T08:18:50.701Z,10.40
2024-01-24T08:21:18.798Z,5.70
2024-01-24T08:23:49.853Z,14.50
2024-01-24T08:26:20.340Z,6.60
2024-01-24T08:28:51.483Z,6.70
2024-01-24T08:31:19.275Z,6.80
2024-01-24T08:33:50.483Z,7.20
2024-01-24T08:36:20.581Z,9.30
2024-01-24T08:38:50.415Z,8.30
2024-01-24T08:41:18.999Z,5.90
2024-01-24T08:43:47.092Z,6.20
2024-01-24T08:46:15.369Z,5.40
2024-01-24T08:48:43.791Z,6.40
2024-01-24T08:51:13.638Z,6.10
2024-01-24T08:53:41.709Z,5.60
2024-01-24T08:56:11.518Z,7.20
2024-01-24T08:58:39.728Z,7.60
2024-01-24T09:01:07.917Z,6.00
2024-01-24T09:03:36.008Z,4.50
2024-01-24T09:06:05.588Z,4.60
2024-01-24T09:08:34.167Z,4.60
2024-01-24T09:11:02.203Z,9.50
2024-01-24T09:13:31.236Z,4.50
2024-01-24T09:15:59.788Z,7.30
2024-01-24T09:18:29.284Z,6.00
2024-01-24T09:20:57.788Z,6.30
2024-01-24T09:23:26.435Z,3.70
2024-01-24T09:25:54.333Z,7.50
2024-01-24T09:28:22.374Z,4.10
2024-01-24T09:30:50.781Z,6.60
2024-01-24T09:33:19.078Z,6.10
2024-01-24T09:35:47.970Z,5.70
2024-01-24T09:38:16.830Z,4.70
2024-01-24T09:40:44.972Z,4.10
2024-01-24T09:43:15.300Z,3.90
2024-01-24T09:45:44.943Z,4.00
2024-01-24T09:48:13.300Z,3.30
2024-01-24T09:50:42.477Z,5.40
2024-01-24T09:53:16.008Z,4.00
2024-01-24T09:55:44.965Z,4.40
2024-01-24T09:58:14.636Z,4.20
2024-01-24T10:00:46.058Z,3.10
2024-01-24T10:03:14.747Z,3.10
2024-01-24T10:05:46.085Z,3.00
2024-01-24T10:08:14.135Z,4.40
2024-01-24T10:10:44.245Z,4.50
2024-01-24T10:13:12.980Z,5.10
2024-01-24T10:15:41.146Z,2.90
2024-01-24T10:18:09.708Z,3.60
2024-01-24T10:20:37.860Z,2.80
2024-01-24T10:23:05.824Z,4.70
2024-01-24T10:25:33.809Z,4.30
2024-01-24T10:28:02.128Z,3.80
2024-01-24T10:30:30.703Z,2.90
2024-01-24T10:32:59.992Z,3.80
2024-01-24T10:35:30.956Z,3.00
2024-01-24T10:37:59.402Z,5.20
2024-01-24T10:40:30.075Z,7.10
2024-01-24T10:43:06.916Z,6.00
2024-01-24T10:45:42.839Z,4.40
2024-01-24T10:48:15.390Z,6.80
2024-01-24T10:50:48.809Z,7.80
2024-01-24T10:53:21.054Z,4.90
2024-01-24T10:55:51.942Z,5.90
2024-01-24T10:58:21.832Z,13.40
2024-01-24T11:00:52.701Z,19.30
2024-01-24T11:03:21.181Z,7.60
2024-01-24T11:05:55.946Z,8.50
2024-01-24T11:08:52.189Z,6.90
2024-01-24T11:11:24.266Z,6.70
2024-01-24T11:13:53.513Z,6.00
2024-01-24T11:16:48.738Z,7.30
2024-01-24T11:19:22.094Z,8.40
2024-01-24T11:21:52.162Z,6.70
2024-01-24T11:24:45.230Z,8.30
2024-01-24T11:27:26.636Z,6.40
2024-01-24T11:29:57.260Z,8.80
2024-01-24T11:32:48.737Z,7.10
2024-01-24T11:35:32.120Z,6.40
2024-01-24T11:38:13.063Z,7.90
2024-01-24T11:40:52.565Z,6.30
2024-01-24T11:43:26.655Z,8.80
2024-01-24T11:46:09.905Z,8.70
2024-01-24T11:48:41.013Z,7.40
2024-01-24T11:51:11.308Z,6.40
2024-01-24T11:53:39.578Z,4.80
2024-01-24T11:56:11.651Z,4.80
2024-01-24T11:58:39.623Z,4.00
2024-01-24T12:01:14.970Z,5.20
2024-01-24T12:03:51.154Z,5.30
2024-01-24T12:06:20.772Z,5.90
2024-01-24T12:08:50.743Z,7.20
2024-01-24T12:11:20.040Z,4.40
2024-01-24T12:13:48.663Z,6.30
2024-01-24T12:16:16.642Z,6.10
2024-01-24T12:18:45.221Z,9.40
2024-01-24T12:21:13.861Z,5.00
2024-01-24T12:23:43.391Z,3.90
2024-01-24T12:26:11.651Z,5.80
2024-01-24T12:28:39.856Z,5.90
2024-01-24T12:31:09.418Z,5.70
2024-01-24T12:33:38.141Z,5.50
2024-01-24T12:36:07.334Z,7.70
2024-01-24T12:38:37.494Z,6.60
2024-01-24T12:41:05.863Z,6.00
2024-01-24T12:43:34.092Z,4.60
2024-01-24T12:46:07.215Z,6.50
2024-01-24T12:48:36.815Z,5.70
2024-01-24T12:51:05.965Z,4.40
2024-01-24T12:53:34.317Z,3.60
2024-01-24T12:56:03.118Z,5.90
2024-01-24T12:58:33.243Z,6.80
2024-01-24T13:01:01.625Z,4.40
2024-01-24T13:03:30.472Z,6.90
2024-01-24T13:05:59.807Z,6.00
2024-01-24T13:08:28.486Z,5.00
2024-01-24T13:10:57.591Z,6.40
2024-01-24T13:13:25.694Z,4.40
2024-01-24T13:15:55.140Z,6.10
2024-01-24T13:18:24.291Z,7.20
2024-01-24T13:20:52.458Z,5.60
2024-01-24T13:23:20.508Z,7.50
2024-01-24T13:25:48.466Z,6.20
2024-01-24T13:28:16.622Z,7.30
2024-01-24T13:30:45.511Z,6.40
2024-01-24T13:33:13.739Z,7.00
2024-01-24T13:35:42.122Z,6.00
2024-01-24T13:38:10.406Z,6.10
2024-01-24T13:40:39.552Z,5.70
2024-01-24T13:43:08.224Z,8.60
2024-01-24T13:45:39.664Z,5.20
2024-01-24T13:48:10.191Z,6.60
2024-01-24T13:50:44.122Z,6.60
2024-01-24T13:53:12.723Z,4.60
2024-01-24T13:55:41.493Z,4.70
2024-01-24T13:58:09.849Z,6.70
2024-01-24T14:00:38.143Z,5.20
2024-01-24T14:03:06.849Z,4.10
2024-01-24T14:05:35.862Z,7.60
2024-01-24T14:08:07.757Z,5.00
2024-01-24T14:10:35.712Z,5.30
2024-01-24T14:13:06.451Z,5.70
2024-01-24T14:15:36.884Z,6.20
2024-01-24T14:18:06.788Z,6.70
2024-01-24T14:20:35.212Z,6.30
2024-01-24T14:23:03.498Z,4.60
2024-01-24T14:25:31.388Z,6.20
2024-01-24T14:27:59.804Z,7.00
2024-01-24T14:30:27.903Z,8.30
2024-01-24T14:32:58.316Z,11.20
2024-01-24T14:35:26.556Z,11.70
2024-01-24T14:37:55.123Z,10.90
2024-01-24T14:40:23.184Z,13.20
2024-01-24T14:42:51.363Z,11.00
2024-01-24T14:45:19.467Z,9.50
2024-01-24T14:47:48.310Z,9.10
2024-01-24T14:50:16.564Z,11.80
2024-01-24T14:52:44.624Z,9.20
2024-01-24T14:55:12.702Z,10.80
2024-01-24T14:57:41.338Z,10.40
2024-01-24T15:00:13.857Z,8.50
2024-01-24T15:02:41.827Z,8.00
2024-01-24T15:05:10.623Z,10.10
2024-01-24T15:07:39.690Z,10.70
2024-01-24T15:10:09.335Z,7.00
2024-01-24T15:12:38.243Z,10.30
2024-01-24T15:15:08.778Z,7.90
2024-01-24T15:17:37.514Z,7.80
2024-01-24T15:20:06.999Z,5.80
2024-01-24T15:22:36.667Z,7.10
2024-01-24T15:25:07.370Z,12.80
2024-01-24T15:27:35.775Z,8.50
2024-01-24T15:30:07.394Z,3.90
2024-01-24T15:32:35.891Z,5.60
2024-01-24T15:35:06.118Z,7.60
2024-01-24T15:37:34.683Z,7.60
2024-01-24T15:40:08.614Z,12.40
2024-01-24T15:42:43.297Z,8.00
2024-01-24T15:45:13.947Z,5.60
2024-01-24T15:47:42.411Z,8.90
2024-01-24T15:50:11.427Z,6.40
2024-01-24T15:52:41.834Z,9.10
2024-01-24T15:55:10.837Z,8.70
2024-01-24T15:57:39.381Z,11.40
2024-01-24T16:00:11.353Z,7.30
2024-01-24T16:02:41.474Z,8.70
2024-01-24T16:05:25.178Z,6.50
2024-01-24T16:07:53.535Z,10.00
2024-01-24T16:10:21.611Z,8.50
2024-01-24T16:12:50.125Z,9.90
2024-01-24T16:15:18.336Z,11.20
2024-01-24T16:17:46.228Z,13.10
2024-01-24T16:20:14.523Z,7.70
2024-01-24T16:22:50.930Z,9.50
2024-01-24T16:25:25.225Z,11.40
2024-01-24T16:27:54.498Z,14.50
2024-01-24T16:30:26.975Z,9.00
2024-01-24T16:32:56.021Z,13.00
2024-01-24T16:35:25.056Z,7.10
2024-01-24T16:37:53.212Z,13.50
2024-01-24T16:40:21.370Z,7.50
2024-01-24T16:42:50.573Z,5.20
2024-01-24T16:45:18.774Z,8.50
2024-01-24T16:47:46.794Z,7.80
2024-01-24T16:50:14.885Z,9.40
2024-01-24T16:52:45.323Z,10.20
2024-01-24T16:55:13.819Z,9.00
2024-01-24T16:57:41.750Z,9.20
2024-01-24T17:00:10.686Z,6.40
2024-01-24T17:02:45.937Z,7.00
2024-01-24T17:05:18.786Z,7.70
2024-01-24T17:07:47.345Z,6.60
2024-01-24T17:10:15.851Z,9.30
2024-01-24T17:12:43.761Z,8.60
2024-01-24T17:15:14.829Z,11.50
2024-01-24T17:17:46.200Z,9.60
2024-01-24T17:20:14.263Z,7.80
2024-01-24T17:22:42.216Z,8.40
2024-01-24T17:25:11.777Z,7.50
2024-01-24T17:27:39.990Z,11.80
2024-01-24T17:30:09.039Z,8.80
2024-01-24T17:32:37.010Z,11.20
2024-01-24T17:35:06.033Z,9.10
2024-01-24T17:37:34.575Z,11.10
2024-01-24T17:40:02.978Z,5.90
2024-01-24T17:42:31.523Z,10.10
2024-01-24T17:44:59.680Z,7.30
2024-01-24T17:47:27.985Z,9.10
2024-01-24T17:49:56.130Z,11.50
2024-01-24T17:52:24.081Z,10.70
2024-01-24T17:54:52.572Z,8.10
2024-01-24T17:57:20.532Z,9.30
2024-01-24T17:59:49.419Z,12.00
2024-01-24T18:02:18.314Z,14.90
2024-01-24T18:04:46.208Z,10.90
2024-01-24T18:07:14.268Z,9.50
2024-01-24T18:09:43.932Z,14.90
2024-01-24T18:12:12.545Z,9.20
2024-01-24T18:14:42.446Z,10.10
2024-01-24T18:17:10.358Z,10.10
2024-01-24T18:19:38.408Z,8.20
2024-01-24T18:22:06.756Z,9.70
2024-01-24T18:24:34.693Z,9.50
2024-01-24T18:27:02.629Z,9.90
2024-01-24T18:29:30.561Z,11.50
2024-01-24T18:31:59.662Z,8.50
2024-01-24T18:34:28.309Z,10.10
2024-01-24T18:36:56.548Z,10.40
2024-01-24T18:39:24.561Z,9.80
2024-01-24T18:41:52.548Z,9.20
2024-01-24T18:44:20.518Z,10.70
2024-01-24T18:46:51.367Z,9.00
2024-01-24T18:51:48.326Z,8.80
2024-01-24T18:54:17.516Z,8.40
2024-01-24T18:56:45.727Z,9.60
2024-01-24T18:59:13.805Z,10.00
2024-01-24T19:01:42.215Z,8.50
2024-01-24T19:04:10.461Z,6.70
2024-01-24T19:06:39.263Z,8.20
2024-01-24T19:09:08.750Z,9.20
2024-01-24T19:11:37.588Z,8.70
2024-01-24T19:14:06.404Z,9.50
2024-01-24T19:16:34.598Z,5.70
2024-01-24T19:19:02.746Z,9.20
2024-01-24T19:21:30.843Z,9.10
2024-01-24T19:23:59.175Z,10.40
2024-01-24T19:26:32.773Z,7.30
2024-01-24T19:29:00.844Z,11.60
2024-01-24T19:31:28.932Z,7.30
2024-01-24T19:33:56.869Z,7.80
2024-01-24T19:36:24.936Z,11.20
2024-01-24T19:38:52.963Z,8.60
2024-01-24T19:41:22.990Z,10.20
2024-01-24T19:43:51.590Z,8.50
2024-01-24T19:46:21.067Z,11.60
2024-01-24T19:48:49.484Z,12.10
2024-01-24T19:51:17.504Z,10.00
2024-01-24T19:53:46.570Z,9.70
2024-01-24T19:56:14.468Z,11.50
2024-01-24T19:58:42.299Z,4.80
2024-01-24T20:01:10.298Z,11.10
2024-01-24T20:03:38.773Z,10.30
2024-01-24T20:06:07.155Z,14.20
2024-01-24T20:08:37.993Z,11.70
2024-01-24T20:11:05.892Z,7.10
2024-01-24T20:13:35.973Z,8.70
2024-01-24T20:16:04.674Z,10.10
2024-01-24T20:18:32.732Z,12.90
2024-01-24T20:21:01.118Z,10.20
2024-01-24T20:23:30.861Z,7.40
2024-01-24T20:26:00.220Z,7.90
2024-01-24T20:28:28.284Z,9.30
2024-01-24T20:30:56.267Z,10.80
2024-01-24T20:33:24.320Z,8.30
2024-01-24T20:35:54.260Z,6.10
2024-01-24T20:38:22.820Z,11.20
2024-01-24T20:40:53.353Z,7.90
2024-01-24T20:43:21.255Z,7.30
2024-01-24T20:45:49.349Z,8.00
2024-01-24T20:48:18.428Z,8.20
2024-01-24T20:50:46.450Z,8.20
2024-01-24T20:53:19.042Z,9.20
2024-01-24T20:55:46.986Z,7.60
2024-01-24T20:58:15.085Z,5.10
2024-01-24T21:00:43.652Z,6.90
2024-01-24T21:03:11.764Z,8.20
2024-01-24T21:05:40.180Z,10.20
2024-01-24T21:08:09.343Z,7.50
2024-01-24T21:10:42.082Z,6.20
2024-01-24T21:13:16.705Z,5.80
2024-01-24T21:15:44.806Z,6.40
2024-01-24T21:18:12.853Z,6.60
2024-01-24T21:20:42.516Z,7.00
2024-01-24T21:23:10.576Z,7.10
2024-01-24T21:25:38.586Z,8.20
2024-01-24T21:28:08.901Z,9.20
2024-01-24T21:30:37.588Z,8.20
2024-01-24T21:33:05.816Z,7.80
2024-01-24T21:35:33.848Z,10.20
2024-01-24T21:38:01.807Z,9.30
2024-01-24T21:40:29.777Z,6.50
2024-01-24T21:42:57.705Z,8.70
2024-01-24T21:45:25.713Z,5.60
2024-01-24T21:47:53.698Z,6.80
2024-01-24T21:50:21.657Z,5.80
2024-01-24T21:52:49.522Z,10.10
2024-01-24T21:55:18.028Z,9.00
2024-01-24T21:57:51.460Z,10.10
2024-01-24T22:00:20.694Z,6.70
2024-01-24T22:02:49.246Z,10.30
2024-01-24T22:05:19.066Z,5.40
2024-01-24T22:07:51.526Z,5.80
2024-01-24T22:10:19.951Z,3.90
2024-01-24T22:12:49.119Z,5.30
2024-01-24T22:15:18.434Z,5.70
2024-01-24T22:17:46.341Z,8.30
2024-01-24T22:20:14.748Z,7.90
2024-01-24T22:25:17.354Z,3.80
2024-01-24T22:27:45.507Z,5.50
2024-01-24T22:30:15.208Z,4.20
2024-01-24T22:32:44.041Z,2.70
2024-01-24T22:35:12.596Z,4.20
2024-01-24T22:37:40.685Z,6.70
2024-01-24T22:40:09.138Z,7.00
2024-01-24T22:42:37.118Z,6.50
2024-01-24T22:45:05.825Z,4.30
2024-01-24T22:47:33.613Z,5.20
2024-01-24T22:50:01.821Z,8.60
2024-01-24T22:52:29.865Z,5.00
2024-01-24T22:54:57.831Z,4.50
2024-01-24T22:57:25.900Z,4.90
2024-01-24T22:59:55.988Z,3.90
2024-01-24T23:02:25.753Z,5.50
2024-01-24T23:04:56.186Z,4.60
2024-01-24T23:07:24.118Z,6.70
2024-01-24T23:09:52.190Z,6.20
2024-01-24T23:12:20.331Z,7.70
2024-01-24T23:14:48.536Z,8.30
2024-01-24T23:17:16.476Z,4.60
2024-01-24T23:19:46.432Z,5.30
2024-01-24T23:22:14.455Z,9.20
2024-01-24T23:24:42.608Z,8.90
2024-01-24T23:27:10.805Z,4.40
2024-01-24T23:29:38.771Z,8.10
2024-01-24T23:32:07.434Z,4.90
2024-01-24T23:34:35.723Z,2.70
2024-01-24T23:37:04.119Z,6.80
2024-01-24T23:39:32.209Z,6.70
2024-01-24T23:42:00.261Z,5.40
2024-01-24T23:44:28.150Z,5.90
2024-01-24T23:46:56.088Z,5.60
2024-01-24T23:49:24.271Z,7.40
2024-01-24T23:51:52.740Z,6.40
2024-01-24T23:54:20.748Z,6.50
2024-01-24T23:56:48.612Z,7.60
2024-01-24T23:59:16.685Z,4.30
